createdAt,value
2022-09-12T00:00:50.675Z,85.13
2022-09-12T00:03:17.493Z,84.61
2022-09-12T00:05:47.720Z,85.32
2022-09-12T00:08:14.663Z,83.95
2022-09-12T00:10:43.037Z,83.98
2022-09-12T00:13:10.469Z,84.63
2022-09-12T00:15:42.305Z,84.02
2022-09-12T00:18:10.358Z,84.63
2022-09-12T00:20:42.300Z,84.49
2022-09-12T00:23:08.722Z,84.00
2022-09-12T00:25:35.154Z,85.54
2022-09-12T00:28:01.748Z,85.35
2022-09-12T00:30:28.182Z,85.00
2022-09-12T00:32:54.800Z,84.63
2022-09-12T00:35:21.259Z,84.68
2022-09-12T00:37:47.662Z,84.17
2022-09-12T00:40:14.414Z,84.63
2022-09-12T00:42:40.854Z,84.74
2022-09-12T00:45:23.217Z,84.46
2022-09-12T00:47:49.756Z,84.40
2022-09-12T00:50:17.493Z,83.96
2022-09-12T00:52:53.299Z,85.21
2022-09-12T00:55:24.673Z,85.86
2022-09-12T00:57:54.256Z,85.40
2022-09-12T01:00:23.523Z,85.81
2022-09-12T01:02:53.528Z,85.95
2022-09-12T01:05:22.305Z,86.16
2022-09-12T01:07:50.431Z,85.71
2022-09-12T01:10:18.911Z,86.20
2022-09-12T01:12:46.361Z,85.79
2022-09-12T01:15:13.078Z,86.44
2022-09-12T01:17:56.125Z,86.47
2022-09-12T01:20:45.382Z,85.66
2022-09-12T01:23:44.500Z,86.12
2022-09-12T01:26:55.519Z,86.23
2022-09-12T01:30:04.842Z,85.22
2022-09-12T01:33:09.198Z,85.14
2022-09-12T01:35:44.835Z,85.89
2022-09-12T01:38:34.464Z,85.92
2022-09-12T01:41:15.640Z,86.02
2022-09-12T01:44:02.029Z,83.77
2022-09-12T01:46:50.529Z,84.08
2022-09-12T01:49:38.050Z,85.34
2022-09-12T01:52:21.306Z,85.39
2022-09-12T01:55:00.364Z,86.63
2022-09-12T01:57:37.218Z,87.21
2022-09-12T02:00:11.493Z,87.07
2022-09-12T02:03:02.690Z,86.64
2022-09-12T02:05:39.649Z,86.44
2022-09-12T02:08:09.883Z,86.23
2022-09-12T02:10:52.831Z,86.38
2022-09-12T02:13:27.159Z,86.83
2022-09-12T02:15:59.969Z,87.16
2022-09-12T02:18:29.061Z,86.75
2022-09-12T02:20:56.969Z,87.62
2022-09-12T02:23:27.778Z,87.83
2022-09-12T02:26:02.488Z,87.61
2022-09-12T02:28:36.816Z,87.21
2022-09-12T02:31:22.042Z,87.50
2022-09-12T02:33:55.763Z,87.88
2022-09-12T02:36:31.779Z,87.41
2022-09-12T02:38:58.585Z,87.32
2022-09-12T02:41:25.138Z,86.28
2022-09-12T02:43:53.666Z,87.22
2022-09-12T02:46:28.427Z,87.43
2022-09-12T02:48:55.925Z,87.16
2022-09-12T02:51:23.740Z,87.74
2022-09-12T02:53:51.003Z,87.25
2022-09-12T02:56:24.719Z,87.37
2022-09-12T02:58:52.288Z,87.21
2022-09-12T03:01:49.656Z,87.93
2022-09-12T03:04:18.823Z,86.91
2022-09-12T03:06:54.444Z,86.75
2022-09-12T03:09:58.960Z,87.05
2022-09-12T03:12:37.524Z,87.75
2022-09-12T03:15:24.373Z,87.40
2022-09-12T03:18:19.203Z,86.75
2022-09-12T03:20:50.645Z,86.55
2022-09-12T03:23:33.256Z,87.46
2022-09-12T03:26:12.887Z,87.21
2022-09-12T03:28:42.426Z,87.67
2022-09-12T03:31:17.004Z,87.40
2022-09-12T03:33:44.210Z,87.97
2022-09-12T03:36:23.735Z,88.12
2022-09-12T03:38:50.429Z,88.23
2022-09-12T03:41:16.903Z,88.44
2022-09-12T03:43:44.626Z,87.75
2022-09-12T03:46:11.133Z,88.19
2022-09-12T03:48:37.682Z,87.39
2022-09-12T03:51:06.189Z,88.54
2022-09-12T03:53:33.089Z,87.32
2022-09-12T03:55:59.565Z,87.13
2022-09-12T03:58:30.567Z,87.39
2022-09-12T04:00:57.065Z,86.17
2022-09-12T04:03:23.504Z,86.61
2022-09-12T04:05:49.919Z,86.98
2022-09-12T04:08:16.430Z,86.49
2022-09-12T04:10:42.861Z,87.18
2022-09-12T04:13:09.338Z,87.44
2022-09-12T04:15:35.750Z,86.26
2022-09-12T04:18:05.696Z,85.99
2022-09-12T04:20:32.483Z,85.76
2022-09-12T04:22:58.875Z,86.87
2022-09-12T04:25:25.618Z,88.28
2022-09-12T04:27:52.055Z,87.78
2022-09-12T04:30:18.593Z,87.25
2022-09-12T04:32:45.257Z,87.75
2022-09-12T04:35:12.830Z,87.47
2022-09-12T04:37:39.285Z,86.96
2022-09-12T04:40:06.118Z,87.27
2022-09-12T04:42:32.548Z,87.44
2022-09-12T04:44:58.954Z,88.34
2022-09-12T04:47:25.354Z,89.07
2022-09-12T04:49:52.388Z,90.29
2022-09-12T04:52:18.805Z,90.18
2022-09-12T04:54:45.476Z,89.30
2022-09-12T04:57:11.908Z,88.22
2022-09-12T04:59:38.578Z,87.88
2022-09-12T05:02:05.873Z,88.64
2022-09-12T05:04:32.379Z,88.44
2022-09-12T05:06:58.850Z,88.36
2022-09-12T05:09:25.315Z,88.87
2022-09-12T05:12:07.120Z,87.52
2022-09-12T05:14:34.367Z,87.06
2022-09-12T05:17:01.874Z,86.93
2022-09-12T05:19:30.460Z,88.34
2022-09-12T05:21:56.997Z,88.20
2022-09-12T05:24:24.654Z,89.09
2022-09-12T05:26:51.235Z,88.27
2022-09-12T05:29:17.793Z,88.06
2022-09-12T05:31:44.211Z,87.56
2022-09-12T05:34:11.282Z,88.58
2022-09-12T05:36:38.587Z,87.96
2022-09-12T05:39:05.864Z,86.91
2022-09-12T05:41:33.787Z,87.49
2022-09-12T05:44:05.569Z,87.84
2022-09-12T05:46:40.310Z,87.14
2022-09-12T05:49:08.825Z,87.39
2022-09-12T05:51:38.381Z,86.73
2022-09-12T05:54:07.718Z,86.25
2022-09-12T05:56:39.361Z,85.30
2022-09-12T05:59:12.021Z,83.51
2022-09-12T06:01:38.809Z,81.45
2022-09-12T06:04:07.011Z,80.40
2022-09-12T06:06:38.528Z,79.87
2022-09-12T06:09:06.128Z,79.68
2022-09-12T06:11:35.116Z,78.58
2022-09-12T06:14:01.994Z,78.06
2022-09-12T06:16:33.934Z,76.61
2022-09-12T06:19:03.676Z,75.24
2022-09-12T06:21:34.457Z,74.28
2022-09-12T06:24:01.757Z,72.95
2022-09-12T06:26:29.212Z,74.37
2022-09-12T06:28:57.060Z,73.43
2022-09-12T06:31:35.530Z,72.62
2022-09-12T06:34:04.463Z,68.42
2022-09-12T06:36:38.057Z,71.08
2022-09-12T06:39:11.402Z,67.44
2022-09-12T06:41:43.003Z,67.43
2022-09-12T06:44:19.319Z,66.54
2022-09-12T06:46:46.112Z,64.63
2022-09-12T06:49:12.909Z,63.66
2022-09-12T06:51:39.503Z,66.52
2022-09-12T06:54:05.922Z,66.08
2022-09-12T06:56:32.528Z,64.53
2022-09-12T06:58:59.316Z,64.26
2022-09-12T07:01:28.413Z,63.36
2022-09-12T07:03:57.410Z,61.98
2022-09-12T07:06:31.622Z,61.50
2022-09-12T07:09:02.773Z,62.80
2022-09-12T07:11:32.021Z,61.44
2022-09-12T07:13:59.902Z,61.46
2022-09-12T07:16:26.730Z,59.55
2022-09-12T07:18:55.227Z,58.24
2022-09-12T07:21:22.137Z,59.04
2022-09-12T07:23:49.294Z,58.36
2022-09-12T07:26:16.813Z,58.27
2022-09-12T07:28:44.128Z,56.93
2022-09-12T07:31:13.477Z,57.78
2022-09-12T07:33:41.308Z,57.09
2022-09-12T07:36:11.871Z,56.40
2022-09-12T07:38:41.907Z,56.12
2022-09-12T07:41:12.247Z,54.25
2022-09-12T07:43:38.648Z,53.41
2022-09-12T07:46:05.386Z,53.11
2022-09-12T07:48:32.203Z,52.25
2022-09-12T07:51:04.356Z,51.39
2022-09-12T07:53:33.852Z,51.59
2022-09-12T07:56:00.578Z,51.56
2022-09-12T07:58:26.982Z,51.41
2022-09-12T08:00:53.624Z,50.94
2022-09-12T08:03:20.669Z,50.12
2022-09-12T08:05:47.177Z,47.76
2022-09-12T08:08:13.755Z,49.34
2022-09-12T08:10:40.205Z,46.64
2022-09-12T08:13:08.757Z,46.74
2022-09-12T08:15:36.608Z,45.32
2022-09-12T08:18:03.105Z,45.01
2022-09-12T08:20:30.375Z,45.26
2022-09-12T08:22:56.782Z,44.81
2022-09-12T08:25:23.501Z,45.17
2022-09-12T08:27:50.252Z,45.43
2022-09-12T08:30:16.682Z,44.86
2022-09-12T08:32:43.101Z,44.88
2022-09-12T08:35:09.783Z,45.14
2022-09-12T08:37:36.199Z,43.33
2022-09-12T08:40:02.820Z,43.49
2022-09-12T08:43:10.697Z,42.56
2022-09-12T08:45:47.795Z,39.85
2022-09-12T08:48:14.391Z,41.25
2022-09-12T08:50:49.213Z,38.92
2022-09-12T08:53:20.602Z,39.51
2022-09-12T08:55:56.236Z,39.08
2022-09-12T08:58:24.531Z,39.83
2022-09-12T09:01:08.092Z,39.55
2022-09-12T09:03:40.302Z,38.68
2022-09-12T09:06:18.338Z,38.77
2022-09-12T09:09:11.918Z,38.94
2022-09-12T09:12:15.825Z,34.14
2022-09-12T09:15:05.230Z,34.61
2022-09-12T09:17:38.065Z,34.05
2022-09-12T09:20:22.577Z,32.29
2022-09-12T09:23:03.793Z,32.86
2022-09-12T09:26:04.568Z,33.55
2022-09-12T09:28:42.396Z,32.31
2022-09-12T09:31:17.314Z,30.35
2022-09-12T09:33:46.332Z,28.48
2022-09-12T09:36:25.975Z,30.04
2022-09-12T09:39:05.975Z,29.66
2022-09-12T09:41:47.765Z,28.17
2022-09-12T09:44:14.351Z,29.41
2022-09-12T09:46:41.042Z,28.95
2022-09-12T09:49:12.687Z,29.63
2022-09-12T09:51:40.908Z,30.02
2022-09-12T09:54:18.024Z,30.59
2022-09-12T09:56:45.008Z,28.77
2022-09-12T09:59:20.864Z,28.37
2022-09-12T10:01:57.483Z,28.95
2022-09-12T10:04:30.518Z,29.72
2022-09-12T10:07:05.903Z,27.71
2022-09-12T10:09:36.187Z,25.88
2022-09-12T10:12:26.244Z,24.69
2022-09-12T10:15:17.027Z,26.95
2022-09-12T10:17:49.537Z,25.69
2022-09-12T10:20:37.414Z,27.33
2022-09-12T10:23:28.424Z,25.36
2022-09-12T10:26:01.371Z,27.41
2022-09-12T10:28:45.887Z,25.72
2022-09-12T10:31:28.847Z,23.95
2022-09-12T10:34:00.181Z,24.93
2022-09-12T10:36:36.696Z,25.18
2022-09-12T10:39:03.950Z,24.02
2022-09-12T10:41:41.024Z,23.37
2022-09-12T10:44:14.260Z,23.97
2022-09-12T10:46:40.707Z,27.54
2022-09-12T10:49:28.551Z,23.32
2022-09-12T10:51:56.761Z,22.83
2022-09-12T10:54:27.011Z,24.33
2022-09-12T10:57:13.738Z,22.33
2022-09-12T10:59:56.594Z,24.01
2022-09-12T11:02:48.177Z,22.15
2022-09-12T11:05:26.744Z,22.34
2022-09-12T11:08:04.739Z,23.36
2022-09-12T11:11:16.122Z,24.14
2022-09-12T11:13:55.270Z,21.04
2022-09-12T11:16:43.270Z,20.13
2022-09-12T11:19:34.038Z,19.90
2022-09-12T11:22:51.681Z,21.08
2022-09-12T11:25:35.512Z,20.37
2022-09-12T11:28:14.078Z,22.77
2022-09-12T11:30:56.732Z,21.98
2022-09-12T11:33:45.958Z,20.33
2022-09-12T11:36:20.564Z,18.00
2022-09-12T11:38:52.228Z,18.58
2022-09-12T11:41:24.938Z,18.71
2022-09-12T11:44:11.033Z,18.75
2022-09-12T11:46:40.096Z,17.89
2022-09-12T11:49:09.447Z,17.66
2022-09-12T11:51:40.630Z,20.48
2022-09-12T11:54:25.426Z,17.97
2022-09-12T11:57:03.093Z,19.53
2022-09-12T11:59:44.070Z,19.20
2022-09-12T12:02:15.093Z,18.29
2022-09-12T12:05:09.342Z,19.35
2022-09-12T12:07:45.621Z,18.80
2022-09-12T12:10:41.070Z,19.82
2022-09-12T12:13:23.229Z,21.16
2022-09-12T12:15:55.073Z,22.95
2022-09-12T12:18:27.897Z,23.19
2022-09-12T12:20:55.877Z,22.52
2022-09-12T12:23:34.530Z,21.35
2022-09-12T12:26:03.532Z,19.53
2022-09-12T12:28:42.208Z,21.13
2022-09-12T12:31:10.702Z,18.95
2022-09-12T12:33:37.172Z,18.18
2022-09-12T12:36:07.886Z,18.02
2022-09-12T12:38:37.067Z,16.89
2022-09-12T12:41:18.563Z,17.52
2022-09-12T12:43:47.289Z,16.62
2022-09-12T12:46:22.468Z,16.88
2022-09-12T12:49:10.102Z,17.41
2022-09-12T12:51:54.713Z,17.49
2022-09-12T12:54:49.631Z,17.10
2022-09-12T12:57:27.050Z,16.63
2022-09-12T13:00:22.056Z,16.48
2022-09-12T13:03:10.012Z,17.75
2022-09-12T13:05:50.092Z,17.77
2022-09-12T13:08:19.842Z,17.86
2022-09-12T13:11:00.358Z,17.22
2022-09-12T13:13:42.422Z,16.48
2022-09-12T13:16:28.537Z,17.58
2022-09-12T13:18:56.574Z,17.44
2022-09-12T13:21:23.810Z,16.76
2022-09-12T13:24:13.897Z,16.71
2022-09-12T13:26:46.080Z,16.60
2022-09-12T13:29:18.913Z,15.74
2022-09-12T13:31:52.924Z,16.36
2022-09-12T13:34:27.750Z,16.84
2022-09-12T13:37:18.306Z,16.40
2022-09-12T13:39:55.475Z,16.49
2022-09-12T13:42:52.483Z,19.57
2022-09-12T13:45:29.642Z,20.51
2022-09-12T13:48:00.809Z,20.98
2022-09-12T13:50:33.641Z,21.49
2022-09-12T13:53:03.770Z,22.04
2022-09-12T13:55:37.301Z,22.43
2022-09-12T13:58:15.656Z,22.30
2022-09-12T14:00:42.092Z,20.63
2022-09-12T14:03:47.789Z,23.54
2022-09-12T14:06:18.219Z,22.80
2022-09-12T14:08:47.031Z,20.93
2022-09-12T14:11:24.933Z,20.90
2022-09-12T14:13:52.645Z,21.04
2022-09-12T14:16:21.434Z,21.09
2022-09-12T14:18:49.902Z,22.31
2022-09-12T14:21:30.267Z,23.59
2022-09-12T14:23:57.617Z,23.92
2022-09-12T14:26:24.889Z,25.57
2022-09-12T14:28:51.925Z,25.99
2022-09-12T14:31:32.748Z,26.20
2022-09-12T14:34:09.985Z,24.88
2022-09-12T14:36:46.381Z,25.17
2022-09-12T14:39:39.743Z,26.46
2022-09-12T14:42:29.969Z,25.87
2022-09-12T14:45:04.063Z,26.04
2022-09-12T14:47:39.090Z,29.30
2022-09-12T14:50:16.578Z,28.57
2022-09-12T14:52:43.829Z,28.62
2022-09-12T14:55:19.002Z,27.37
2022-09-12T14:57:45.921Z,27.48
2022-09-12T15:00:12.363Z,27.20
2022-09-12T15:02:40.173Z,26.77
2022-09-12T15:05:06.534Z,28.00
2022-09-12T15:07:41.896Z,27.77
2022-09-12T15:10:22.995Z,28.13
2022-09-12T15:12:49.714Z,27.88
2022-09-12T15:15:19.309Z,27.76
2022-09-12T15:17:45.742Z,27.73
2022-09-12T15:20:13.513Z,27.91
2022-09-12T15:22:41.613Z,28.13
2022-09-12T15:25:09.171Z,28.27
2022-09-12T15:27:35.601Z,28.90
2022-09-12T15:30:02.327Z,29.55
2022-09-12T15:32:30.276Z,29.76
2022-09-12T15:34:56.983Z,30.88
2022-09-12T15:37:25.403Z,32.83
2022-09-12T15:39:52.040Z,32.21
2022-09-12T15:42:26.895Z,31.60
2022-09-12T15:44:53.839Z,30.95
2022-09-12T15:47:20.253Z,31.40
2022-09-12T15:49:46.652Z,31.76
2022-09-12T15:52:16.265Z,31.76
2022-09-12T15:54:43.769Z,31.75
2022-09-12T15:57:10.305Z,32.89
2022-09-12T15:59:37.134Z,32.88
2022-09-12T16:02:03.626Z,32.57
2022-09-12T16:04:30.748Z,33.32
2022-09-12T16:06:57.253Z,33.40
2022-09-12T16:09:24.107Z,34.74
2022-09-12T16:11:50.647Z,34.98
2022-09-12T16:14:18.836Z,34.70
2022-09-12T16:16:53.589Z,34.54
2022-09-12T16:19:20.205Z,34.16
2022-09-12T16:21:46.609Z,33.47
2022-09-12T16:24:13.030Z,33.86
2022-09-12T16:26:39.479Z,33.45
2022-09-12T16:29:06.140Z,33.38
2022-09-12T16:31:32.597Z,33.76
2022-09-12T16:33:59.009Z,33.98
2022-09-12T16:36:25.453Z,35.63
2022-09-12T16:38:54.138Z,34.62
2022-09-12T16:41:22.886Z,34.26
2022-09-12T16:43:49.306Z,34.82
2022-09-12T16:46:21.446Z,35.84
2022-09-12T16:48:52.374Z,36.77
2022-09-12T16:51:22.449Z,35.98
2022-09-12T16:53:49.301Z,35.96
2022-09-12T16:56:15.877Z,38.82
2022-09-12T16:58:42.740Z,37.54
2022-09-12T17:01:12.110Z,38.10
2022-09-12T17:03:38.901Z,39.71
2022-09-12T17:06:08.523Z,38.21
2022-09-12T17:08:38.032Z,40.29
2022-09-12T17:11:07.531Z,42.27
2022-09-12T17:14:00.179Z,41.94
2022-09-12T17:16:21.742Z,43.11
2022-09-12T17:18:49.300Z,42.74
2022-09-12T17:21:15.730Z,43.10
2022-09-12T17:23:42.687Z,43.02
2022-09-12T17:26:10.585Z,44.08
2022-09-12T17:28:38.448Z,43.89
2022-09-12T17:31:09.785Z,43.94
2022-09-12T17:33:36.938Z,44.48
2022-09-12T17:36:15.329Z,44.46
2022-09-12T17:38:43.306Z,45.09
2022-09-12T17:41:16.050Z,45.17
2022-09-12T17:43:42.716Z,45.37
2022-09-12T17:46:09.301Z,45.63
2022-09-12T17:48:36.219Z,46.71
2022-09-12T17:51:10.540Z,47.59
2022-09-12T17:53:37.472Z,48.03
2022-09-12T17:56:04.816Z,47.13
2022-09-12T17:58:32.235Z,46.83
2022-09-12T18:01:26.189Z,47.72
2022-09-12T18:03:57.767Z,48.21
2022-09-12T18:06:24.577Z,48.99
2022-09-12T18:08:51.070Z,49.83
2022-09-12T18:11:17.622Z,51.77
2022-09-12T18:13:44.081Z,52.53
2022-09-12T18:16:12.501Z,52.06
2022-09-12T18:18:39.035Z,53.03
2022-09-12T18:21:07.940Z,52.69
2022-09-12T18:23:34.496Z,52.46
2022-09-12T18:26:03.765Z,53.75
2022-09-12T18:28:33.326Z,53.10
2022-09-12T18:30:59.989Z,52.57
2022-09-12T18:33:26.487Z,52.15
2022-09-12T18:35:52.992Z,53.56
2022-09-12T18:38:19.501Z,54.91
2022-09-12T18:40:45.953Z,55.43
2022-09-12T18:43:12.403Z,54.45
2022-09-12T18:45:38.801Z,54.20
2022-09-12T18:48:06.137Z,53.70
2022-09-12T18:50:33.085Z,54.65
2022-09-12T18:53:00.004Z,55.50
2022-09-12T18:55:26.858Z,56.99
2022-09-12T18:57:55.440Z,56.14
2022-09-12T19:00:21.916Z,56.10
2022-09-12T19:02:48.320Z,56.90
2022-09-12T19:05:14.856Z,57.28
2022-09-12T19:07:41.309Z,57.06
2022-09-12T19:10:08.968Z,56.31
2022-09-12T19:12:35.447Z,56.84
2022-09-12T19:15:02.038Z,56.98
2022-09-12T19:17:28.484Z,56.13
2022-09-12T19:19:55.463Z,57.64
2022-09-12T19:22:22.200Z,57.16
2022-09-12T19:24:48.634Z,56.67
2022-09-12T19:27:16.079Z,56.53
2022-09-12T19:29:42.630Z,56.67
2022-09-12T19:32:09.057Z,57.58
2022-09-12T19:34:35.510Z,57.48
2022-09-12T19:37:01.925Z,56.67
2022-09-12T19:39:28.424Z,56.60
2022-09-12T19:41:54.830Z,57.61
2022-09-12T19:44:21.263Z,59.25
2022-09-12T19:46:47.813Z,60.11
2022-09-12T19:49:14.354Z,62.06
2022-09-12T19:51:41.137Z,63.25
2022-09-12T19:54:07.926Z,64.39
2022-09-12T19:56:34.449Z,64.46
2022-09-12T19:59:00.898Z,64.17
2022-09-12T20:01:30.847Z,61.07
2022-09-12T20:03:58.310Z,58.36
2022-09-12T20:06:25.707Z,58.24
2022-09-12T20:08:52.083Z,58.58
2022-09-12T20:11:21.800Z,58.61
2022-09-12T20:13:48.230Z,58.71
2022-09-12T20:16:22.019Z,58.65
2022-09-12T20:18:53.936Z,58.68
2022-09-12T20:21:24.890Z,58.72
2022-09-12T20:23:51.736Z,59.32
2022-09-12T20:26:20.202Z,59.21
2022-09-12T20:28:46.887Z,59.28
2022-09-12T20:31:16.108Z,59.42
2022-09-12T20:33:43.482Z,58.21
2022-09-12T20:36:14.034Z,58.43
2022-09-12T20:38:40.974Z,59.27
2022-09-12T20:41:09.953Z,59.23
2022-09-12T20:43:38.568Z,59.25
2022-09-12T20:46:06.870Z,59.83
2022-09-12T20:48:33.404Z,60.87
2022-09-12T20:50:59.992Z,61.88
2022-09-12T20:53:28.831Z,61.38
2022-09-12T20:55:58.107Z,61.74
2022-09-12T20:58:24.765Z,62.83
2022-09-12T21:00:51.254Z,63.13
2022-09-12T21:03:18.398Z,64.19
2022-09-12T21:05:46.067Z,64.62
2022-09-12T21:08:13.649Z,63.90
2022-09-12T21:10:42.054Z,64.04
2022-09-12T21:13:12.889Z,64.18
2022-09-12T21:15:40.393Z,64.25
2022-09-12T21:18:07.217Z,63.90
2022-09-12T21:20:34.038Z,64.48
2022-09-12T21:23:00.465Z,64.66
2022-09-12T21:25:28.928Z,64.76
2022-09-12T21:27:55.394Z,65.33
2022-09-12T21:30:22.363Z,64.73
2022-09-12T21:32:48.943Z,64.25
2022-09-12T21:35:15.650Z,65.10
2022-09-12T21:37:42.071Z,65.75
2022-09-12T21:40:08.912Z,65.45
2022-09-12T21:42:35.482Z,65.16
2022-09-12T21:45:01.904Z,65.48
2022-09-12T21:47:28.365Z,66.52
2022-09-12T21:49:55.354Z,66.54
2022-09-12T21:52:23.225Z,67.19
2022-09-12T21:54:49.611Z,67.40
2022-09-12T21:57:16.049Z,67.84
2022-09-12T21:59:42.517Z,68.60
2022-09-12T22:02:10.223Z,69.27
2022-09-12T22:04:36.714Z,70.07
2022-09-12T22:07:03.181Z,69.26
2022-09-12T22:09:29.583Z,69.69
2022-09-12T22:11:55.994Z,68.95
2022-09-12T22:14:22.457Z,68.08
2022-09-12T22:16:49.446Z,67.68
2022-09-12T22:19:15.942Z,67.69
2022-09-12T22:22:02.324Z,67.76
2022-09-12T22:24:29.097Z,67.68
2022-09-12T22:26:57.337Z,67.10
2022-09-12T22:29:23.764Z,67.42
2022-09-12T22:31:50.357Z,67.54
2022-09-12T22:34:16.764Z,67.99
2022-09-12T22:36:43.216Z,68.35
2022-09-12T22:39:09.839Z,68.33
2022-09-12T22:41:36.335Z,68.06
2022-09-12T22:44:02.867Z,68.06
2022-09-12T22:46:30.568Z,68.80
2022-09-12T22:48:57.058Z,68.95
2022-09-12T22:51:23.875Z,68.89
2022-09-12T22:53:50.332Z,69.21
2022-09-12T22:56:17.471Z,69.50
2022-09-12T22:58:44.045Z,69.82
2022-09-12T23:01:10.639Z,70.82
2022-09-12T23:03:37.679Z,70.60
2022-09-12T23:06:04.754Z,70.98
2022-09-12T23:08:31.500Z,71.17
2022-09-12T23:11:09.387Z,71.17
2022-09-12T23:13:37.137Z,71.28
2022-09-12T23:16:06.656Z,71.77
2022-09-12T23:18:36.905Z,72.06
2022-09-12T23:21:06.782Z,71.89
2022-09-12T23:23:33.664Z,71.78
2022-09-12T23:26:12.497Z,71.91
2022-09-12T23:28:48.536Z,71.45
2022-09-12T23:31:17.097Z,71.58
2022-09-12T23:33:44.267Z,72.00
2022-09-12T23:36:14.335Z,72.23
2022-09-12T23:38:42.722Z,72.25
2022-09-12T23:41:10.181Z,72.19
2022-09-12T23:43:37.019Z,72.34
2022-09-12T23:46:04.589Z,72.29
2022-09-12T23:48:31.981Z,72.31
2022-09-12T23:50:58.548Z,72.30
2022-09-12T23:53:25.462Z,72.83
2022-09-12T23:55:52.323Z,72.88
2022-09-12T23:58:18.957Z,73.07
